createdAt,value
2023-01-03T00:01:14.370Z,12.00
2023-01-03T00:04:00.731Z,12.00
2023-01-03T00:06:47.521Z,11.90
2023-01-03T00:09:32.854Z,11.80
2023-01-03T00:12:30.436Z,11.90
2023-01-03T00:15:16.441Z,11.80
2023-01-03T00:18:01.943Z,11.70
2023-01-03T00:20:47.577Z,11.70
2023-01-03T00:23:33.286Z,11.70
2023-01-03T00:26:18.851Z,11.60
2023-01-03T00:29:04.681Z,11.70
2023-01-03T00:31:52.427Z,11.60
2023-01-03T00:34:37.944Z,11.60
2023-01-03T00:37:23.335Z,11.60
2023-01-03T00:40:09.249Z,11.60
2023-01-03T00:43:13.453Z,11.60
2023-01-03T00:45:59.222Z,11.60
2023-01-03T00:48:44.600Z,11.60
2023-01-03T00:51:31.403Z,11.60
2023-01-03T00:54:16.979Z,11.50
2023-01-03T00:57:02.683Z,11.40
2023-01-03T00:59:48.335Z,11.50
2023-01-03T01:02:34.081Z,11.50
2023-01-03T01:05:19.468Z,11.40
2023-01-03T01:08:05.268Z,11.30
2023-01-03T01:11:02.934Z,11.30
2023-01-03T01:13:49.097Z,11.30
2023-01-03T01:16:34.757Z,11.30
2023-01-03T01:19:22.951Z,11.50
2023-01-03T01:22:09.597Z,11.40
2023-01-03T01:24:55.210Z,11.40
2023-01-03T01:27:40.879Z,11.40
2023-01-03T01:30:26.642Z,11.40
2023-01-03T01:33:12.237Z,11.40
2023-01-03T01:35:57.613Z,11.30
2023-01-03T01:38:44.301Z,11.40
2023-01-03T01:41:49.838Z,11.40
2023-01-03T01:44:43.498Z,11.40
2023-01-03T01:47:38.495Z,11.40
2023-01-03T01:50:39.393Z,11.40
2023-01-03T01:53:33.549Z,11.30
2023-01-03T01:56:23.735Z,11.20
2023-01-03T01:59:09.738Z,11.20
2023-01-03T02:01:56.063Z,11.10
2023-01-03T02:04:41.733Z,11.00
2023-01-03T02:07:27.584Z,11.00
2023-01-03T02:10:12.979Z,10.90
2023-01-03T02:13:06.761Z,10.90
2023-01-03T02:16:14.224Z,10.90
2023-01-03T02:19:18.617Z,10.90
2023-01-03T02:22:13.409Z,10.90
2023-01-03T02:25:28.847Z,11.00
2023-01-03T02:28:26.766Z,11.00
2023-01-03T02:31:18.459Z,11.00
2023-01-03T02:34:07.101Z,11.10
2023-01-03T02:37:11.509Z,11.10
2023-01-03T02:40:01.469Z,11.10
2023-01-03T02:42:57.872Z,11.00
2023-01-03T02:45:49.652Z,11.00
2023-01-03T02:48:46.654Z,11.00
2023-01-03T02:51:36.931Z,11.10
2023-01-03T02:54:26.264Z,11.00
2023-01-03T02:57:14.029Z,11.00
2023-01-03T03:00:28.831Z,10.90
2023-01-03T03:03:16.470Z,10.90
2023-01-03T03:06:12.877Z,11.00
2023-01-03T03:08:58.626Z,10.90
2023-01-03T03:12:02.841Z,10.90
2023-01-03T03:14:50.354Z,10.90
2023-01-03T03:17:35.922Z,10.90
2023-01-03T03:20:40.175Z,10.80
2023-01-03T03:23:45.534Z,10.80
2023-01-03T03:26:32.502Z,10.70
2023-01-03T03:29:18.480Z,10.70
2023-01-03T03:32:04.367Z,10.70
2023-01-03T03:34:50.051Z,10.70
2023-01-03T03:37:36.791Z,10.70
2023-01-03T03:40:43.471Z,10.70
2023-01-03T03:43:55.592Z,10.70
2023-01-03T03:46:50.554Z,10.60
2023-01-03T03:49:40.467Z,10.60
2023-01-03T03:52:27.987Z,10.60
2023-01-03T03:55:22.507Z,10.60
2023-01-03T03:58:12.009Z,10.60
2023-01-03T04:00:57.803Z,10.60
2023-01-03T04:03:44.380Z,10.70
2023-01-03T04:06:33.728Z,10.60
2023-01-03T04:09:19.328Z,10.60
2023-01-03T04:12:04.894Z,10.60
2023-01-03T04:14:50.660Z,10.60
2023-01-03T04:17:36.381Z,10.60
2023-01-03T04:20:21.969Z,10.50
2023-01-03T04:23:07.583Z,10.60
2023-01-03T04:25:53.250Z,10.60
2023-01-03T04:28:38.876Z,10.50
2023-01-03T04:31:24.653Z,10.60
2023-01-03T04:34:10.253Z,10.60
2023-01-03T04:36:55.918Z,10.50
2023-01-03T04:39:41.580Z,10.50
2023-01-03T04:42:45.889Z,10.50
2023-01-03T04:45:31.455Z,10.50
2023-01-03T04:48:17.257Z,10.50
2023-01-03T04:51:02.765Z,10.50
2023-01-03T04:53:48.310Z,10.40
2023-01-03T04:56:35.016Z,10.40
2023-01-03T04:59:20.743Z,10.40
2023-01-03T05:02:06.428Z,10.40
2023-01-03T05:04:52.105Z,10.40
2023-01-03T05:07:37.772Z,10.30
2023-01-03T05:10:23.301Z,10.40
2023-01-03T05:13:09.131Z,10.40
2023-01-03T05:15:54.509Z,10.40
2023-01-03T05:18:40.337Z,10.20
2023-01-03T05:21:44.308Z,10.30
2023-01-03T05:24:48.408Z,10.30
2023-01-03T05:27:33.762Z,10.30
2023-01-03T05:30:19.467Z,10.20
2023-01-03T05:33:05.023Z,10.20
2023-01-03T05:35:50.877Z,10.10
2023-01-03T05:38:36.855Z,10.10
2023-01-03T05:41:41.036Z,10.10
2023-01-03T05:44:30.660Z,10.20
2023-01-03T05:47:16.433Z,10.30
2023-01-03T05:50:02.443Z,10.20
2023-01-03T05:52:48.971Z,10.20
2023-01-03T05:55:36.362Z,10.20
2023-01-03T05:58:21.642Z,10.20
2023-01-03T06:01:11.589Z,10.20
2023-01-03T06:03:56.944Z,10.20
2023-01-03T06:06:42.447Z,10.10
2023-01-03T06:09:28.181Z,10.10
2023-01-03T06:12:14.143Z,10.00
2023-01-03T06:14:59.384Z,10.10
2023-01-03T06:18:02.463Z,10.10
2023-01-03T06:20:47.938Z,10.00
2023-01-03T06:23:33.616Z,10.00
2023-01-03T06:26:20.443Z,10.10
2023-01-03T06:29:06.537Z,10.20
2023-01-03T06:31:51.985Z,10.20
2023-01-03T06:34:38.123Z,10.10
2023-01-03T06:37:23.315Z,10.10
2023-01-03T06:40:09.298Z,10.10
2023-01-03T06:42:54.788Z,10.00
2023-01-03T06:46:03.133Z,10.00
2023-01-03T06:49:07.129Z,10.00
2023-01-03T06:52:11.343Z,9.90
2023-01-03T06:54:56.845Z,10.00
2023-01-03T06:57:42.668Z,10.40
2023-01-03T07:00:28.343Z,10.70
2023-01-03T07:03:14.115Z,11.20
2023-01-03T07:05:59.670Z,12.70
2023-01-03T07:08:48.373Z,11.90
2023-01-03T07:11:34.954Z,12.20
2023-01-03T07:14:20.703Z,12.50
2023-01-03T07:17:06.204Z,12.70
2023-01-03T07:19:51.767Z,12.80
2023-01-03T07:22:37.422Z,13.00
2023-01-03T07:25:23.272Z,13.10
2023-01-03T07:28:12.847Z,13.20
2023-01-03T07:31:02.492Z,13.30
2023-01-03T07:33:48.192Z,13.40
2023-01-03T07:36:33.987Z,13.40
2023-01-03T07:39:19.433Z,13.50
2023-01-03T07:42:23.838Z,13.50
2023-01-03T07:45:10.086Z,13.50
2023-01-03T07:47:55.660Z,13.60
2023-01-03T07:50:41.411Z,13.60
2023-01-03T07:53:27.379Z,13.50
2023-01-03T07:56:14.393Z,13.70
2023-01-03T07:58:59.834Z,13.70
2023-01-03T08:01:45.622Z,13.70
2023-01-03T08:04:31.240Z,13.70
2023-01-03T08:07:16.917Z,13.70
2023-01-03T08:10:21.070Z,13.80
2023-01-03T08:13:18.929Z,13.80
2023-01-03T08:16:04.634Z,13.80
2023-01-03T08:18:50.160Z,13.80
2023-01-03T08:21:35.576Z,13.80
2023-01-03T08:24:21.030Z,13.80
2023-01-03T08:27:06.750Z,13.90
2023-01-03T08:29:52.356Z,13.90
2023-01-03T08:32:38.881Z,13.90
2023-01-03T08:35:24.756Z,13.90
2023-01-03T08:38:12.013Z,13.90
2023-01-03T08:40:58.609Z,13.90
2023-01-03T08:43:45.307Z,14.00
2023-01-03T08:46:33.172Z,14.00
2023-01-03T08:49:18.960Z,14.00
2023-01-03T08:52:04.840Z,14.00
2023-01-03T08:54:50.195Z,14.10
2023-01-03T08:57:35.938Z,14.00
2023-01-03T09:00:21.621Z,14.10
2023-01-03T09:03:07.388Z,14.10
2023-01-03T09:05:52.785Z,14.10
2023-01-03T09:08:38.600Z,14.10
2023-01-03T09:11:23.973Z,14.20
2023-01-03T09:14:09.557Z,14.20
2023-01-03T09:16:55.259Z,14.20
2023-01-03T09:19:40.786Z,14.20
2023-01-03T09:22:26.561Z,14.30
2023-01-03T09:25:12.134Z,14.30
2023-01-03T09:27:57.830Z,14.40
2023-01-03T09:30:43.231Z,14.40
2023-01-03T09:33:28.877Z,14.50
2023-01-03T09:36:14.459Z,14.50
2023-01-03T09:39:00.437Z,14.60
2023-01-03T09:42:05.858Z,14.60
2023-01-03T09:44:52.083Z,14.70
2023-01-03T09:47:39.222Z,14.80
2023-01-03T09:50:39.208Z,14.80
2023-01-03T09:53:54.877Z,14.90
2023-01-03T09:56:59.085Z,15.00
2023-01-03T10:00:03.049Z,15.10
2023-01-03T10:03:23.893Z,15.20
2023-01-03T10:06:12.789Z,15.30
2023-01-03T10:09:13.533Z,15.40
2023-01-03T10:12:17.646Z,15.50
2023-01-03T10:15:09.334Z,15.60
2023-01-03T10:17:54.899Z,15.60
2023-01-03T10:20:59.193Z,15.70
2023-01-03T10:23:45.371Z,15.80
2023-01-03T10:26:33.282Z,15.90
2023-01-03T10:29:19.068Z,15.90
2023-01-03T10:32:07.805Z,16.10
2023-01-03T10:35:16.634Z,16.10
2023-01-03T10:38:02.444Z,16.20
2023-01-03T10:40:50.807Z,16.30
2023-01-03T10:43:43.981Z,16.30
2023-01-03T10:46:30.995Z,16.30
2023-01-03T10:49:30.036Z,16.30
2023-01-03T10:52:17.988Z,16.40
2023-01-03T10:55:05.055Z,16.40
2023-01-03T10:57:53.529Z,16.50
2023-01-03T11:00:38.982Z,16.50
2023-01-03T11:03:25.412Z,16.50
2023-01-03T11:06:16.762Z,16.50
2023-01-03T11:09:03.934Z,16.60
2023-01-03T11:11:53.534Z,16.70
2023-01-03T11:14:39.124Z,16.70
2023-01-03T11:17:26.166Z,16.60
2023-01-03T11:20:17.933Z,16.60
2023-01-03T11:23:08.719Z,16.50
2023-01-03T11:25:59.707Z,16.50
2023-01-03T11:29:02.606Z,16.50
2023-01-03T11:31:55.002Z,16.40
2023-01-03T11:35:21.400Z,16.30
2023-01-03T11:38:20.200Z,16.20
2023-01-03T11:41:20.356Z,16.20
2023-01-03T11:44:08.839Z,16.10
2023-01-03T11:47:03.769Z,16.00
2023-01-03T11:49:52.421Z,16.00
2023-01-03T11:52:47.158Z,16.00
2023-01-03T11:55:39.098Z,16.00
2023-01-03T11:58:30.990Z,16.00
2023-01-03T12:01:16.622Z,16.00
2023-01-03T12:04:18.751Z,16.00
2023-01-03T12:07:45.281Z,16.00
2023-01-03T12:10:09.277Z,15.90
2023-01-03T12:13:13.494Z,15.90
2023-01-03T12:16:04.592Z,15.90
2023-01-03T12:18:54.014Z,15.90
2023-01-03T12:21:41.966Z,15.90
2023-01-03T12:25:05.674Z,15.90
2023-01-03T12:27:56.946Z,16.00
2023-01-03T12:31:03.320Z,17.00
2023-01-03T12:33:54.294Z,16.00
2023-01-03T12:36:39.796Z,16.00
2023-01-03T12:39:34.975Z,16.00
2023-01-03T12:42:33.206Z,16.00
2023-01-03T12:45:33.025Z,16.00
2023-01-03T12:48:38.729Z,16.00
2023-01-03T12:51:25.688Z,16.00
2023-01-03T12:54:25.806Z,15.90
2023-01-03T12:57:14.558Z,15.90
2023-01-03T13:00:32.705Z,15.90
2023-01-03T13:03:26.664Z,15.90
2023-01-03T13:06:32.654Z,15.90
2023-01-03T13:09:23.787Z,15.90
2023-01-03T13:12:29.423Z,15.80
2023-01-03T13:15:37.169Z,15.80
2023-01-03T13:18:23.035Z,15.70
2023-01-03T13:21:28.976Z,15.70
2023-01-03T13:24:34.489Z,15.70
2023-01-03T13:27:22.892Z,15.70
2023-01-03T13:30:21.738Z,15.60
2023-01-03T13:33:10.594Z,15.60
2023-01-03T13:36:01.369Z,15.70
2023-01-03T13:38:46.892Z,15.60
2023-01-03T13:41:36.732Z,15.60
2023-01-03T13:44:23.419Z,15.60
2023-01-03T13:47:21.950Z,15.60
2023-01-03T13:50:20.795Z,15.60
2023-01-03T13:53:12.241Z,15.60
2023-01-03T13:56:19.228Z,15.50
2023-01-03T13:59:19.019Z,15.60
2023-01-03T14:02:10.660Z,15.60
2023-01-03T14:04:56.134Z,15.60
2023-01-03T14:08:00.582Z,15.60
2023-01-03T14:10:54.987Z,15.60
2023-01-03T14:13:44.128Z,15.60
2023-01-03T14:16:43.375Z,15.60
2023-01-03T14:19:34.515Z,15.60
2023-01-03T14:22:31.337Z,15.60
2023-01-03T14:25:37.738Z,15.60
2023-01-03T14:28:24.579Z,15.60
2023-01-03T14:31:17.571Z,15.60
2023-01-03T14:34:05.302Z,15.70
2023-01-03T14:36:50.663Z,15.70
2023-01-03T14:42:20.705Z,15.70
2023-01-03T14:45:06.957Z,15.70
2023-01-03T14:47:54.335Z,15.70
2023-01-03T14:50:41.939Z,15.80
2023-01-03T14:53:27.837Z,15.80
2023-01-03T14:56:13.630Z,15.70
2023-01-03T14:59:00.487Z,15.70
2023-01-03T15:01:46.400Z,15.70
2023-01-03T15:04:32.178Z,15.80
2023-01-03T15:07:43.378Z,15.70
2023-01-03T15:10:39.334Z,15.70
2023-01-03T15:13:26.946Z,15.70
2023-01-03T15:16:32.901Z,15.70
2023-01-03T15:19:24.389Z,15.70
2023-01-03T15:22:19.273Z,15.70
2023-01-03T15:25:08.534Z,15.60
2023-01-03T15:27:54.000Z,15.60
2023-01-03T15:30:47.381Z,15.60
2023-01-03T15:33:35.485Z,15.60
2023-01-03T15:36:24.500Z,15.60
2023-01-03T15:39:20.487Z,15.60
2023-01-03T15:42:50.202Z,15.60
2023-01-03T15:45:40.383Z,15.60
2023-01-03T15:48:26.239Z,15.70
2023-01-03T15:51:11.828Z,15.60
2023-01-03T15:53:57.289Z,15.60
2023-01-03T15:56:49.309Z,15.60
2023-01-03T15:59:42.972Z,15.60
2023-01-03T16:02:30.431Z,15.60
2023-01-03T16:05:21.928Z,15.60
2023-01-03T16:08:29.186Z,15.60
2023-01-03T16:11:20.051Z,15.60
2023-01-03T16:14:08.125Z,15.60
2023-01-03T16:16:53.895Z,15.60
2023-01-03T16:19:39.127Z,15.60
2023-01-03T16:22:34.475Z,15.60
2023-01-03T16:25:22.200Z,15.60
2023-01-03T16:28:12.280Z,15.60
2023-01-03T16:31:13.199Z,15.60
2023-01-03T16:33:58.610Z,15.60
2023-01-03T16:36:46.360Z,15.60
2023-01-03T16:39:32.385Z,15.50
2023-01-03T16:42:18.994Z,15.50
2023-01-03T16:45:04.897Z,15.50
2023-01-03T16:47:50.355Z,15.60
2023-01-03T16:50:38.152Z,15.60
2023-01-03T16:53:35.488Z,15.60
2023-01-03T16:56:21.423Z,15.60
2023-01-03T16:59:11.189Z,15.60
2023-01-03T17:01:56.866Z,15.60
2023-01-03T17:04:42.275Z,15.60
2023-01-03T17:07:28.072Z,15.60
2023-01-03T17:10:40.120Z,15.60
2023-01-03T17:13:32.997Z,15.60
2023-01-03T17:16:19.780Z,15.50
2023-01-03T17:19:05.163Z,15.60
2023-01-03T17:21:51.518Z,15.60
2023-01-03T17:24:37.029Z,15.60
2023-01-03T17:27:31.936Z,15.60
2023-01-03T17:30:19.940Z,15.60
2023-01-03T17:33:05.569Z,15.60
2023-01-03T17:35:52.462Z,15.60
2023-01-03T17:38:38.144Z,15.60
2023-01-03T17:41:25.299Z,15.60
2023-01-03T17:44:13.935Z,15.60
2023-01-03T17:47:33.672Z,15.60
2023-01-03T17:50:19.004Z,15.60
2023-01-03T17:53:04.699Z,15.60
2023-01-03T17:55:50.651Z,15.60
2023-01-03T17:58:37.581Z,15.60
2023-01-03T18:01:23.143Z,14.00
2023-01-03T18:04:08.792Z,15.60
2023-01-03T18:06:58.424Z,15.60
2023-01-03T18:09:43.957Z,15.60
2023-01-03T18:12:29.507Z,15.60
2023-01-03T18:15:16.180Z,15.60
2023-01-03T18:18:01.906Z,15.60
2023-01-03T18:20:48.026Z,15.60
2023-01-03T18:23:36.148Z,15.60
2023-01-03T18:26:22.287Z,15.60
2023-01-03T18:29:11.532Z,15.60
2023-01-03T18:31:57.149Z,15.60
2023-01-03T18:34:42.718Z,15.50
2023-01-03T18:37:33.966Z,15.50
2023-01-03T18:40:20.639Z,15.50
2023-01-03T18:43:10.113Z,15.50
2023-01-03T18:45:55.697Z,15.50
2023-01-03T18:48:41.300Z,15.50
2023-01-03T18:51:28.067Z,15.50
2023-01-03T18:54:18.484Z,15.50
2023-01-03T18:57:04.010Z,15.50
2023-01-03T18:59:50.364Z,15.50
2023-01-03T19:02:36.355Z,15.50
2023-01-03T19:05:22.165Z,15.50
2023-01-03T19:08:08.644Z,15.40
2023-01-03T19:10:54.166Z,15.50
2023-01-03T19:13:50.870Z,15.50
2023-01-03T19:16:37.496Z,15.40
2023-01-03T19:19:22.970Z,15.50
2023-01-03T19:22:23.603Z,15.40
2023-01-03T19:25:13.235Z,15.40
2023-01-03T19:28:00.339Z,15.40
2023-01-03T19:30:46.594Z,15.40
2023-01-03T19:33:32.173Z,15.40
2023-01-03T19:36:17.940Z,15.40
2023-01-03T19:39:04.426Z,15.40
2023-01-03T19:42:09.836Z,15.40
2023-01-03T19:44:55.889Z,15.40
2023-01-03T19:47:41.336Z,15.40
2023-01-03T19:50:28.158Z,15.30
2023-01-03T19:53:13.675Z,15.40
2023-01-03T19:55:59.279Z,15.30
2023-01-03T19:58:44.661Z,15.30
2023-01-03T20:01:43.948Z,15.30
2023-01-03T20:04:36.714Z,15.30
2023-01-03T20:07:22.320Z,15.30
2023-01-03T20:10:08.199Z,15.30
2023-01-03T20:12:54.725Z,15.40
2023-01-03T20:15:44.070Z,15.30
2023-01-03T20:18:30.733Z,15.30
2023-01-03T20:21:22.792Z,14.60
2023-01-03T20:24:14.618Z,15.30
2023-01-03T20:26:59.867Z,15.30
2023-01-03T20:29:45.482Z,15.30
2023-01-03T20:32:31.003Z,15.30
2023-01-03T20:36:06.956Z,15.30
2023-01-03T20:38:27.508Z,15.30
2023-01-03T20:41:14.532Z,15.30
2023-01-03T20:44:00.128Z,15.30
2023-01-03T20:46:45.925Z,15.20
2023-01-03T20:49:31.669Z,15.20
2023-01-03T20:52:17.395Z,15.20
2023-01-03T20:55:02.995Z,15.20
2023-01-03T20:57:49.185Z,15.20
2023-01-03T21:00:35.161Z,15.20
2023-01-03T21:03:20.559Z,15.20
2023-01-03T21:06:19.357Z,15.20
2023-01-03T21:09:06.046Z,15.20
2023-01-03T21:11:51.318Z,15.20
2023-01-03T21:14:36.934Z,15.20
2023-01-03T21:17:22.674Z,15.20
2023-01-03T21:20:19.476Z,15.20
2023-01-03T21:23:05.206Z,15.20
2023-01-03T21:25:50.689Z,15.20
2023-01-03T21:28:36.253Z,15.10
2023-01-03T21:31:22.760Z,15.10
2023-01-03T21:34:13.101Z,15.10
2023-01-03T21:36:58.622Z,15.10
2023-01-03T21:39:44.257Z,15.10
2023-01-03T21:42:48.637Z,15.10
2023-01-03T21:45:42.044Z,15.10
2023-01-03T21:48:27.482Z,15.10
2023-01-03T21:51:13.939Z,15.10
2023-01-03T21:53:59.250Z,15.10
2023-01-03T21:56:46.082Z,15.10
2023-01-03T21:59:32.032Z,15.10
2023-01-03T22:02:36.736Z,15.10
2023-01-03T22:05:21.993Z,15.10
2023-01-03T22:08:07.648Z,15.00
2023-01-03T22:10:53.368Z,15.00
2023-01-03T22:13:39.060Z,15.00
2023-01-03T22:16:24.794Z,15.10
2023-01-03T22:19:10.103Z,15.00
2023-01-03T22:21:55.668Z,15.00
2023-01-03T22:24:41.208Z,15.10
2023-01-03T22:27:26.881Z,15.10
2023-01-03T22:30:13.807Z,14.50
2023-01-03T22:32:59.446Z,14.00
2023-01-03T22:35:45.168Z,13.40
2023-01-03T22:38:30.719Z,13.00
2023-01-03T22:41:17.250Z,12.50
2023-01-03T22:44:02.874Z,12.30
2023-01-03T22:46:48.452Z,12.10
2023-01-03T22:49:34.233Z,12.00
2023-01-03T22:52:20.037Z,11.90
2023-01-03T22:55:06.002Z,11.80
2023-01-03T22:57:51.571Z,11.80
2023-01-03T23:00:37.182Z,11.70
2023-01-03T23:03:22.848Z,11.60
2023-01-03T23:06:09.544Z,11.50
2023-01-03T23:08:55.667Z,11.30
2023-01-03T23:11:59.788Z,11.30
2023-01-03T23:14:45.479Z,11.20
2023-01-03T23:17:49.681Z,11.10
2023-01-03T23:20:35.337Z,11.10
2023-01-03T23:23:20.650Z,11.10
2023-01-03T23:26:06.268Z,11.00
2023-01-03T23:28:58.681Z,10.90
2023-01-03T23:31:44.683Z,11.00
2023-01-03T23:34:30.383Z,10.90
2023-01-03T23:37:16.114Z,11.00
2023-01-03T23:40:01.800Z,11.10
2023-01-03T23:42:47.419Z,11.20
2023-01-03T23:45:33.175Z,11.30
2023-01-03T23:48:18.660Z,11.20
2023-01-03T23:51:05.207Z,11.20
2023-01-03T23:53:51.190Z,11.10
2023-01-03T23:56:37.077Z,11.10
2023-01-03T23:59:22.860Z,11.10
